Latest Coastal Weather Observations for Cape Nelson

IDV60701

Issued at 3:45 am EDT Saturday 22 November 2014 (issued every 10 minutes, with the page automatically refreshed every 10 minutes)

About coastal observations | Map of coastal stations | Coastal observations for VIC | Marine services | Other Formats
Station Details ID: 090184 Name: CAPE NELSON LIGHTHOUSE Lat: -38.43 Lon: 141.54 Height: 45.4 m
Data from the previous 72 hours. | See also: Recent months at Cape Nelson
Date/Time
EDT
Temp

°C
Wind Pressure Rain
since 9am
mm
Weather Cloud Vis
km
Sea
Height
m
Swell
Dir
 
Speed
knots
Gust
knots
hPa Trend Height
m
Period
s
Dir
22/03:30am 14.4 W 6 7 1010.7 - 0.2 - - - - - - -
22/03:00am 14.4 WNW 6 7 1010.9 - 0.0 - - - - - - -
22/02:30am 14.6 NNE 5 11 1010.1 - 0.0 - - - - - - -
22/02:17am 14.3 NW 6 11 1010.6 - 0.0 - - - - - - -
22/02:00am 13.9 NNE 12 16 1008.6 - 0.0 - - - - - - -
22/01:30am 13.7 NE 9 15 1008.7 - 0.0 - - - - - - -
22/01:00am 13.2 NNE 11 15 1009.6 - 0.0 - - - - - - -
22/12:30am 12.9 NNE 8 10 1010.0 - 0.0 - - - - - - -
22/12:00am 12.7 NNE 7 9 1010.4 - 0.0 - - - - - - -
 
Date/Time
EDT
Temp

°C
Wind Pressure Rain
since 9am
mm
Weather Cloud Vis
km
Sea
Height
m
Swell
Dir
 
Speed
knots
Gust
knots
hPa Trend Height
m
Period
s
Dir
21/11:30pm 12.3 N 7 8 1011.1 - 0.0 - - - - - - -
21/11:00pm 12.5 N 6 7 1011.4 - 0.0 - - - - - - -
21/10:30pm 13.3 N 5 6 1011.4 - 0.0 - - - - - - -
21/10:00pm 13.9 NW 4 6 1011.7 - 0.0 - - - - - - -
21/09:30pm 14.6 WNW 6 9 1011.7 - 0.0 - - - - - - -
21/09:00pm 14.9 WNW 9 11 1011.5 - 0.0 - - - - - - -
21/08:30pm 15.2 W 11 15 1011.6 - 0.0 - - - - - - -
21/08:00pm 15.7 W 11 15 1011.5 - 0.0 - - - - - - -
21/07:30pm 16.2 W 10 17 1011.2 - 0.0 - - - - - - -
21/07:00pm 16.3 W 13 19 1010.9 - 0.0 - - - - - - -
21/06:30pm 16.6 W 11 15 1010.8 - 0.0 - - - - - - -
21/06:00pm 17.1 W 11 15 1010.6 - 0.0 - - - - - - -
21/05:30pm 17.5 W 9 14 1010.2 - 0.0 - - - - - - -
21/05:00pm 17.4 W 9 13 1010.4 - 0.0 - - - - - - -
21/04:30pm 17.3 W 9 13 1010.8 - 0.0 - - - - - - -
21/04:00pm 16.5 W 12 14 1010.8 - 0.0 - - - - - - -
21/03:30pm 16.6 W 12 16 1011.1 - 0.0 - - - - - - -
21/03:00pm 16.6 W 13 17 1011.2 - 0.0 - - - - - - -
21/02:30pm 15.9 W 12 15 1011.2 - 0.0 - - - - - - -
21/02:00pm 16.0 W 9 12 1011.4 - 0.0 - - - - - - -
21/01:30pm 16.0 W 11 13 1011.7 - 0.0 - - - - - - -
21/01:00pm 16.3 W 8 12 1011.9 - 0.0 - - - - - - -
21/12:30pm 16.5 W 11 14 1012.0 - 0.0 - - - - - - -
21/12:00pm 16.7 W 7 11 1012.1 - 0.0 - - - - - - -
21/11:30am 15.9 W 8 12 1012.2 - 0.0 - - - - - - -
21/11:00am 15.5 W 9 13 1012.3 - 0.0 - - - - - - -
21/10:30am 15.3 W 8 11 1012.1 - 0.0 - - - - - - -
21/10:00am 14.7 W 9 13 1011.9 - 0.0 - - - - - - -
21/09:30am 14.5 W 9 13 1011.8 - 0.0 - - - - - - -
21/09:00am 13.9 W 12 17 1011.6 - 7.6 - - - - - - -
21/08:30am 14.0 WNW 11 16 1011.3 - 7.6 - - - - - - -
21/08:00am 13.4 W 14 20 1010.8 - 7.6 - - - - - - -
21/07:30am 12.9 W 14 19 1010.3 - 7.6 - - - - - - -
21/07:00am 12.9 NW 11 16 1009.6 - 7.6 - - - - - - -
21/06:30am 13.2 WNW 14 21 1010.0 - 7.6 - - - - - - -
21/06:00am 13.4 W 19 25 1009.8 - 7.6 - - - - - - -
21/05:30am 13.1 WNW 15 22 1009.2 - 7.6 - - - - - - -
21/05:00am 13.5 W 14 20 1008.8 - 7.6 - - - - - - -
21/04:30am 13.2 W 12 17 1008.2 - 7.6 - - - - - - -
21/04:00am 13.1 WNW 10 15 1007.9 - 7.6 - - - - - - -
21/03:30am 13.0 WNW 12 18 1007.9 - 7.6 - - - - - - -
21/03:00am 13.3 W 14 20 1008.1 - 7.6 Rain - - - - - -
21/02:30am 13.4 W 16 21 1008.0 - 7.4 - - - - - - -
21/02:00am 13.3 WNW 10 15 1008.0 - 7.4 - - - - - - -
21/01:30am 12.6 N 9 14 1008.0 - 7.4 - - - - - - -
21/01:00am 13.1 NNW 10 14 1007.9 - 7.4 - - - - - - -
21/12:30am 13.3 NW 12 19 1007.8 - 7.4 - - - - - - -
21/12:00am 13.9 NW 11 19 1007.5 - 7.4 Rain - - - - - -
 
Date/Time
EDT
Temp

°C
Wind Pressure Rain
since 9am
mm
Weather Cloud Vis
km
Sea
Height
m
Swell
Dir
 
Speed
knots
Gust
knots
hPa Trend Height
m
Period
s
Dir
20/11:30pm 14.3 W 14 19 1007.4 - 7.2 - - - - - - -
20/11:00pm 14.7 W 18 23 1007.3 - 7.2 - - - - - - -
20/10:30pm 15.0 W 17 22 1006.8 - 7.2 - - - - - - -
20/10:00pm 15.0 W 15 22 1006.4 - 7.2 - - - - - - -
20/09:30pm 15.1 W 13 20 1005.9 - 7.2 - - - - - - -
20/09:00pm 15.3 WNW 15 21 1005.5 - 7.2 - - - - - - -
20/08:30pm 15.5 WNW 16 22 1005.1 - 7.2 - - - - - - -
20/08:00pm 15.8 WNW 18 24 1004.6 - 7.2 - - - - - - -
20/07:30pm 16.4 WNW 16 21 1004.2 - 7.2 - - - - - - -
20/07:00pm 16.5 WNW 16 23 1003.8 - 7.2 - - - - - - -
20/06:30pm 16.8 WNW 17 25 1003.5 - 7.2 - - - - - - -
20/06:14pm 17.0 WNW 17 27 1003.2 - 7.2 - - - - - - -
20/06:00pm 17.2 WNW 15 21 1003.3 - 7.2 - - - - - - -
20/05:30pm 18.7 NW 14 20 1003.1 - 7.2 - - - - - - -
20/05:00pm 17.3 WNW 9 12 1003.5 - 7.2 - - - - - - -
20/04:30pm 17.3 WNW 10 13 1003.5 - 7.0 - - - - - - -
20/04:00pm 17.7 WNW 10 14 1003.8 - 6.6 - - - - - - -
20/03:30pm 18.5 NNW 12 17 1003.3 - 5.4 - - - - - - -
20/03:00pm 17.6 NNW 14 23 1003.8 - 5.2 Rain - - - - - -
20/02:30pm 17.2 NW 14 20 1004.7 - 4.0 - - - - - - -
20/02:00pm 16.8 WNW 17 24 1005.2 - 2.8 - - - - - - -
20/01:42pm 16.5 WNW 20 30 1005.4 - 2.4 - - - - - - -
20/01:30pm 16.7 WNW 23 30 1005.3 - 1.4 - - - - - - -
20/01:16pm 17.3 WNW 15 27 1005.0 - 0.8 - - - - - - -
20/01:00pm 18.1 WNW 15 20 1004.7 - 0.2 - - - - - - -
20/12:30pm 19.9 NW 18 24 1004.2 - 0.0 - - - - - - -
20/12:00pm 23.7 NNW 17 29 1003.5 - 0.0 - - - - - - -
20/11:54am 23.4 NNW 16 29 1003.4 - 0.0 - - - - - - -
20/11:30am 23.4 N 13 21 1002.8 - 0.0 - - - - - - -
20/11:00am 21.9 NNW 13 20 1003.0 - 0.0 - - - - - - -
20/10:30am 18.9 N 10 14 1003.0 - 0.0 - - - - - - -
20/10:00am 19.2 NNE 5 7 1003.2 - 0.0 - - - - - - -
20/09:30am 18.3 NE 7 10 1003.0 - 0.0 - - - - - - -
20/09:00am 18.0 NNE 8 14 1003.3 - 0.0 - - - - - - -
20/08:30am 17.3 NE 9 13 1003.6 - 0.0 - - - - - - -
20/08:00am 17.1 ENE 9 13 1004.2 - 0.0 - - - - - - -
20/07:30am 16.8 E 7 9 1004.7 - 0.0 - - - - - - -
20/07:00am 16.8 ENE 3 6 1004.9 - 0.0 - - - - - - -
20/06:30am 17.0 SW 6 9 1004.9 - 0.0 - - - - - - -
20/06:00am 17.6 WSW 5 12 1005.4 - 0.0 - - - - - - -
20/05:30am 19.2 NNW 5 9 1004.0 - 0.0 - - - - - - -
20/05:00am 20.1 N 11 16 1003.7 - 0.0 - - - - - - -
20/04:30am 18.7 N 8 12 1003.9 - 0.0 - - - - - - -
20/04:00am 17.4 N 9 12 1003.8 - 0.0 - - - - - - -
20/03:30am 18.1 N 12 17 1004.1 - 0.0 - - - - - - -
20/03:00am 18.5 N 13 18 1005.1 - 0.0 - - - - - - -
20/02:30am 18.5 N 13 17 1005.6 - 0.0 - - - - - - -
20/02:00am 17.9 NNE 9 13 1006.3 - 0.0 - - - - - - -
20/01:30am 17.7 NNE 11 16 1006.8 - 0.0 - - - - - - -
20/01:00am 17.2 NNE 12 17 1007.1 - 0.0 - - - - - - -
20/12:30am 16.9 NNE 15 21 1007.3 - 0.0 - - - - - - -
20/12:00am 16.8 NNE 13 18 1007.7 - 0.0 - - - - - - -
 
Date/Time
EDT
Temp

°C
Wind Pressure Rain
since 9am
mm
Weather Cloud Vis
km
Sea
Height
m
Swell
Dir
 
Speed
knots
Gust
knots
hPa Trend Height
m
Period
s
Dir
19/11:30pm 16.8 NE 11 13 1008.2 - 0.0 - - - - - - -
19/11:00pm 16.6 NE 9 12 1009.3 - 0.0 - - - - - - -
19/10:30pm 16.8 NE 9 13 1009.6 - 0.0 - - - - - - -
19/10:00pm 16.9 NE 8 10 1010.4 - 0.0 - - - - - - -
19/09:30pm 17.0 NE 5 7 1011.0 - 0.0 - - - - - - -
19/09:00pm 16.8 ENE 5 7 1011.2 - 0.0 - - - - - - -
19/08:30pm 17.1 NE 4 5 1011.3 - 0.0 - - - - - - -
19/08:00pm 17.6 NE 4 5 1011.3 - 0.0 - - - - - - -
19/07:30pm 18.5 E 1 5 1011.2 - 0.0 - - - - - - -
19/07:00pm 18.5 E 5 6 1010.9 - 0.0 - - - - - - -
19/06:30pm 18.3 E 6 8 1010.7 - 0.0 - - - - - - -
19/06:00pm 18.7 E 5 7 1011.0 - 0.0 - - - - - - -
19/05:30pm 19.3 ESE 5 7 1011.4 - 0.0 - - - - - - -
19/05:00pm 19.5 SSE 5 6 1011.7 - 0.0 - - - - - - -
19/04:30pm 19.7 SSE 6 7 1011.8 - 0.0 - - - - - - -
19/04:00pm 19.8 SE 6 7 1012.3 - 0.0 - - - - - - -
19/03:30pm 19.5 SE 6 7 1012.5 - 0.0 - - - - - - -
19/03:00pm 19.9 SSE 5 6 1013.3 - 0.0 - - - - - - -
19/02:30pm 19.7 SSE 5 7 1013.7 - 0.0 - - - - - - -
19/02:00pm 19.7 S 5 6 1014.3 - 0.0 - - - - - - -
19/01:30pm 18.8 SSW 6 7 1014.6 - 0.0 - - - - - - -
19/01:00pm 18.2 WSW 5 7 1015.1 - 0.0 - - - - - - -
19/12:30pm 18.2 WSW 5 7 1015.4 - 0.0 - - - - - - -
19/12:00pm 18.5 SW 4 7 1015.9 - 0.0 - - - - - - -
19/11:30am 18.9 SE 5 8 1016.2 - 0.0 - - - - - - -
19/11:00am 18.5 ESE 7 9 1016.3 - 0.0 - - - - - - -
19/10:30am 17.6 SE 5 7 1017.2 - 0.0 - - - - - - -
19/10:00am 17.8 W 5 8 1017.2 - 0.0 - - - - - - -
19/09:30am 17.3 NE 9 12 1017.3 - 0.0 - - - - - - -
19/09:00am 15.7 NE 10 14 1017.2 - 0.0 - - - - - - -
19/08:30am 14.2 NE 13 18 1017.6 - 0.0 - - - - - - -
19/08:00am 13.3 NE 10 14 1017.9 - 0.0 - - - - - - -
19/07:30am 12.3 NNE 11 15 1018.4 - 0.0 - - - - - - -
19/07:00am 11.1 NNE 11 16 1018.2 - 0.0 - - - - - - -
19/06:30am 10.5 NNE 9 12 1018.2 - 0.0 - - - - - - -
19/06:00am 9.7 NNE 8 11 1018.4 - 0.0 - - - - - - -
19/05:30am 8.9 NNE 7 9 1018.6 - 0.0 - - - - - - -
19/05:00am 8.8 NNE 7 8 1018.7 - 0.0 - - - - - - -
19/04:30am 8.3 N 6 7 1019.1 - 0.0 - - - - - - -
19/04:00am 7.2 N 6 7 1019.2 - 0.0 - - - - - - -

Other Formats:

Comma delimited format used in spreadsheet applications
http://www.bom.gov.au/fwo/IDV60701/IDV60701.94826.axf

JavaScript Object Notation format (JSON) in row-major order
http://www.bom.gov.au/fwo/IDV60701/IDV60701.94826.json